Wrightsville, GA

7:01 AM EST on March 03, 2015 (GMT -0500)
Baldwin County | Change Station
CLOSE
Current Station
Airport
Location: Milledgeville,
Elevation: 384 ft
Nearby Weather Stations

Elev 384 ft 33.15 °N, 83.24 °W | Updated 26 minutes ago

Overcast
Overcast
55 °F
Feels Like 55 °F
N
0
Wind Variable Wind from North

Today
High -- | Low -- °F
--% Chance of Precip.
Yesterday
High -- | Low -- °F
Precip. -- in
6:56 AM 6:29 PM
Waxing Gibbous, 95% visible
Pressure 30.22 in
Visibility 7.0 miles
Clouds Scattered Clouds 800 ft
Overcast 1600 ft
Dew Point 55 °F
Humidity 100%
Rainfall 0.00 in
Snow Depth Not available.
UV 0 out of 12
Pollen 7.40 out of 12
Air Quality Not available.
Flu Activity Not available.
METAR KMLJ 031135Z AUTO 00000KT 7SM SCT008 OVC016 13/13 A3022 RMK AO2

More Conditions Fewer Conditions

Pressure 30.22 in
Visibility 7.0 miles
Clouds Scattered Clouds 800 ft
Overcast 1600 ft
Dew Point 55 °F
Humidity 100%
Rainfall 0.00 in
Snow Depth Not available.
UV 0 out of 12
Pollen 7.40 out of 12
Air Quality Not available.
Flu Activity Not available.
METAR KMLJ 031135Z AUTO 00000KT 7SM SCT008 OVC016 13/13 A3022 RMK AO2

More Conditions Fewer Conditions

10-Day Weather Forecast

Almanac

Astronomy

Mar. 03, 2015 Rise Set
Actual Time
Civil Twilight
Nautical Twilight
Astronomical Twilight
Moon
Length of Visible Light
Length of Day
Tomorrow will be .
, % of the Moon is Illuminated

Today's Extremes

State Highs State Lows

Community

WunderPhotos

Upload Photos

1,802,090 photos uploaded!

WunderBlogs® & News

Nearby

Air Quality

  Air Quality AQ Index Pollutant
Not available.

Snow Depth

Station Depth Elevation

Earthquake Activity

City Distance Mag. Time & Date
Minimum magnitude displayed is 2.5.

Coastal Water Temperatures

Place Temperature

Nearby Weather Stations